KPAH - December 23, 2004 - Hourly Observations

Time(CST) Temperature Dew Point Humidity Sea Level Pressure Visibility Wind Direction Wind Speed Gust Speed Precipitation Events Conditions
12:53 AM 15.1 F / -9.4 C 10.9 F / -11.7 C 84% 30.05 in / 1017.6 hPa 1.5 miles / 2.4 kilometers NNW 17.3 mph / 27.8 km/h / 7.7 m/s 24.2 mph / 38.9 km/h / 10.8 m/s 0.01 in / 0.0 cm   Overcast
METAR KPAH 230653Z AUTO 34015G21KT 1 1/2SM BR OVC010 M09/M12 A3003 RMK AO2 SLP176 P0001 T10941117 PWINO FZRANO $
1:04 AM 15.8 F / -9.0 C 10.4 F / -12.0 C 79% 30.03 in / 1016.8 hPa 2.0 miles / 3.2 kilometers North 15.0 mph / 24.1 km/h / 6.7 m/s - N/A   Overcast
SPECI KPAH 230704Z AUTO 36013KT 2SM BR OVC016 M09/M12 A3003 RMK AO2 PWINO FZRANO $
1:53 AM 15.1 F / -9.4 C 10.9 F / -11.7 C 84% 30.08 in / 1018.4 hPa 2.5 miles / 4.0 kilometers NNW 10.4 mph / 16.7 km/h / 4.6 m/s - N/A   Overcast
METAR KPAH 230753Z AUTO 34009KT 2 1/2SM BR OVC018 M09/M12 A3006 RMK AO2 SLP184 T10941117 PWINO FZRANO $
2:04 AM 15.8 F / -9.0 C 10.4 F / -12.0 C 79% 30.07 in / 1018.2 hPa 3.0 miles / 4.8 kilometers NNW 15.0 mph / 24.1 km/h / 6.7 m/s - N/A   Overcast
SPECI KPAH 230804Z AUTO 34013KT 3SM BR BKN016 OVC022 M09/M12 A3007 RMK AO2 PWINO FZRANO $
2:17 AM 15.8 F / -9.0 C 10.4 F / -12.0 C 79% 30.07 in / 1018.2 hPa 3.0 miles / 4.8 kilometers NNW 15.0 mph / 24.1 km/h / 6.7 m/s - N/A   Overcast
SPECI KPAH 230817Z AUTO 34013KT 3SM BR BKN014 OVC024 M09/M12 A3007 RMK AO2 PWINO FZRANO $
2:25 AM 15.8 F / -9.0 C 10.4 F / -12.0 C 79% 30.07 in / 1018.2 hPa 4.0 miles / 6.4 kilometers North 15.0 mph / 24.1 km/h / 6.7 m/s - N/A   Overcast
SPECI KPAH 230825Z AUTO 35013KT 4SM BR BKN016 BKN024 OVC038 M09/M12 A3007 RMK AO2 PWINO FZRANO $
2:41 AM 14.0 F / -10.0 C 10.4 F / -12.0 C 86% 30.09 in / 1018.8 hPa 5.0 miles / 8.0 kilometers NNW 12.7 mph / 20.4 km/h / 5.7 m/s 20.7 mph / 33.3 km/h / 9.3 m/s N/A   Overcast
SPECI KPAH 230841Z AUTO 34011G18KT 5SM BR SCT016 BKN038 OVC055 M10/M12 A3009 RMK AO2 PWINO FZRANO $
2:53 AM 14.0 F / -10.0 C 10.0 F / -12.2 C 84% 30.11 in / 1019.4 hPa 8.0 miles / 12.9 kilometers NNW 13.8 mph / 22.2 km/h / 6.2 m/s - N/A   Overcast
METAR KPAH 230853Z AUTO 34012KT 8SM FEW016 OVC050 M10/M12 A3009 RMK AO2 SLP194 60001 T11001122 53019 PWINO FZRANO $
3:53 AM 14.0 F / -10.0 C 9.0 F / -12.8 C 80% 30.12 in / 1019.8 hPa 10.0 miles / 16.1 kilometers NNW 16.1 mph / 25.9 km/h / 7.2 m/s 20.7 mph / 33.3 km/h / 9.3 m/s N/A   Overcast
METAR KPAH 230953Z AUTO 34014G18KT 10SM OVC075 M10/M13 A3010 RMK AO2 SLP198 T11001128 PWINO FZRANO $
4:53 AM 12.9 F / -10.6 C 6.1 F / -14.4 C 74% 30.17 in / 1021.6 hPa 10.0 miles / 16.1 kilometers NNW 12.7 mph / 20.4 km/h / 5.7 m/s - N/A   Overcast
METAR KPAH 231053Z AUTO 33011KT 10SM BKN080 OVC090 M11/M14 A3015 RMK AO2 SLP216 T11061144 $
5:53 AM 12.9 F / -10.6 C 6.1 F / -14.4 C 74% 30.20 in / 1022.6 hPa 10.0 miles / 16.1 kilometers North 6.9 mph / 11.1 km/h / 3.1 m/s - N/A   Overcast
METAR KPAH 231153Z AUTO 35006KT 10SM OVC090 M11/M14 A3018 RMK AO2 SLP226 60001 70048 T11061144 11094 21106 53031 $
6:53 AM 12.9 F / -10.6 C 5.0 F / -15.0 C 71% 30.25 in / 1024.3 hPa 10.0 miles / 16.1 kilometers WNW 10.4 mph / 16.7 km/h / 4.6 m/s - N/A   Clear
METAR KPAH 231253Z 30009KT 10SM CLR M11/M15 A3023 RMK AO2 SLP243 T11061150
7:12 AM 12.2 F / -11.0 C 5.0 F / -15.0 C 73% 30.23 in / 1023.6 hPa 10.0 miles / 16.1 kilometers NW 9.2 mph / 14.8 km/h / 4.1 m/s - N/A   Mostly Cloudy
SPECI KPAH 231312Z 32008KT 10SM BKN020 M11/M15 A3023 RMK AO2
7:53 AM 14.0 F / -10.0 C 7.0 F / -13.9 C 74% 30.28 in / 1025.2 hPa 8.0 miles / 12.9 kilometers NNW 8.1 mph / 13.0 km/h / 3.6 m/s - N/A   Overcast
METAR KPAH 231353Z 33007KT 8SM OVC020 M10/M14 A3026 RMK AO2 SLP252 T11001139
8:33 AM 14.0 F / -10.0 C 8.6 F / -13.0 C 79% 30.28 in / 1025.3 hPa 2.5 miles / 4.0 kilometers NNW 9.2 mph / 14.8 km/h / 4.1 m/s 19.6 mph / 31.5 km/h / 8.7 m/s 0.00 in / 0.0 cm Snow Light Snow
SPECI KPAH 231433Z 33008G17KT 2 1/2SM -SN OVC020 M10/M13 A3028 RMK AO2 SNB09 P0000
8:46 AM 14.0 F / -10.0 C 6.8 F / -14.0 C 73% 30.29 in / 1025.6 hPa 4.0 miles / 6.4 kilometers NW 13.8 mph / 22.2 km/h / 6.2 m/s - 0.00 in / 0.0 cm Snow Light Snow
SPECI KPAH 231446Z 32012KT 4SM -SN OVC020 M10/M14 A3029 RMK AO2 SNB09 P0000
8:53 AM 14.0 F / -10.0 C 7.0 F / -13.9 C 74% 30.32 in / 1026.6 hPa 5.0 miles / 8.0 kilometers NW 11.5 mph / 18.5 km/h / 5.1 m/s - 0.00 in / 0.0 cm Snow Light Snow
METAR KPAH 231453Z 32010KT 5SM -SN OVC020 M10/M14 A3030 RMK AO2 SNB09 SLP266 P0000 60000 T11001139 51040
9:34 AM 14.0 F / -10.0 C 6.8 F / -14.0 C 73% 30.33 in / 1027.0 hPa 10.0 miles / 16.1 kilometers NNW 11.5 mph / 18.5 km/h / 5.1 m/s - 0.00 in / 0.0 cm   Scattered Clouds
SPECI KPAH 231534Z 33010KT 10SM SCT020 M10/M14 A3033 RMK AO2 SNE1456 P0000 $
9:53 AM 15.1 F / -9.4 C 7.0 F / -13.9 C 70% 30.36 in / 1028.1 hPa 10.0 miles / 16.1 kilometers North - - 0.00 in / 0.0 cm   Clear
METAR KPAH 231553Z 10SM CLR M09/M14 A3034 RMK AO2 SNE1456 SLP281 P0000 T10941139 $
10:32 AM 15.8 F / -9.0 C 6.8 F / -14.0 C 68% 30.36 in / 1028.0 hPa 10.0 miles / 16.1 kilometers NNW 9.2 mph / 14.8 km/h / 4.1 m/s - 0.00 in / 0.0 cm   Mostly Cloudy
SPECI KPAH 231632Z 33008KT 10SM BKN026 M09/M14 A3036 RMK AO2 UPB00E09 P0000 $
10:53 AM 16.0 F / -8.9 C 6.1 F / -14.4 C 65% 30.39 in / 1029.1 hPa 10.0 miles / 16.1 kilometers North - - 0.00 in / 0.0 cm   Partly Cloudy
METAR KPAH 231653Z 10SM FEW026 M09/M14 A3037 RMK AO2 UPB00E09 SLP291 P0000 T10891144 $
11:53 AM 17.1 F / -8.3 C 7.0 F / -13.9 C 65% 30.38 in / 1028.7 hPa 10.0 miles / 16.1 kilometers NNW 6.9 mph / 11.1 km/h / 3.1 m/s - N/A   Clear
METAR KPAH 231753Z 34006KT 10SM CLR M08/M14 A3036 RMK AO2 SLP287 60000 T10831139 11083 21106 50020 $
12:53 PM 18.0 F / -7.8 C 7.0 F / -13.9 C 62% 30.38 in / 1028.6 hPa 10.0 miles / 16.1 kilometers NNW 5.8 mph / 9.3 km/h / 2.6 m/s - N/A   Clear
METAR KPAH 231853Z 33005KT 10SM CLR M08/M14 A3036 RMK AO2 SLP286 T10781139
1:53 PM 18.0 F / -7.8 C 7.0 F / -13.9 C 62% 30.37 in / 1028.3 hPa 10.0 miles / 16.1 kilometers North 9.2 mph / 14.8 km/h / 4.1 m/s - N/A   Clear
METAR KPAH 231953Z 35008KT 10SM CLR M08/M14 A3035 RMK AO2 SLP283 T10781139
2:53 PM 18.0 F / -7.8 C 6.1 F / -14.4 C 60% 30.39 in / 1028.9 hPa 10.0 miles / 16.1 kilometers North 9.2 mph / 14.8 km/h / 4.1 m/s - N/A   Clear
METAR KPAH 232053Z 36008KT 10SM CLR M08/M14 A3037 RMK AO2 SLP289 T10781144 53002
3:53 PM 17.1 F / -8.3 C 5.0 F / -15.0 C 59% 30.42 in / 1029.9 hPa 10.0 miles / 16.1 kilometers North 8.1 mph / 13.0 km/h / 3.6 m/s - N/A   Clear
METAR KPAH 232153Z AUTO 01007KT 10SM CLR M08/M15 A3039 RMK AO2 SLP299 T10831150
4:53 PM 15.1 F / -9.4 C 3.9 F / -15.6 C 61% 30.43 in / 1030.4 hPa 10.0 miles / 16.1 kilometers North 8.1 mph / 13.0 km/h / 3.6 m/s - N/A   Clear
METAR KPAH 232253Z AUTO 01007KT 10SM CLR M09/M16 A3041 RMK AO2 SLP304 T10941156
5:53 PM 12.9 F / -10.6 C 3.9 F / -15.6 C 67% 30.45 in / 1030.9 hPa 10.0 miles / 16.1 kilometers NNE 6.9 mph / 11.1 km/h / 3.1 m/s - N/A   Clear
METAR KPAH 232353Z AUTO 02006KT 10SM CLR M11/M16 A3042 RMK AO2 SLP309 T11061156 11072 21106 51018
6:53 PM 10.9 F / -11.7 C 3.0 F / -16.1 C 70% 30.47 in / 1031.6 hPa 10.0 miles / 16.1 kilometers Calm Calm - N/A   Clear
METAR KPAH 240053Z AUTO 00000KT 10SM CLR M12/M16 A3044 RMK AO2 SLP316 T11171161
7:53 PM 9.0 F / -12.8 C 3.0 F / -16.1 C 77% 30.47 in / 1031.7 hPa 10.0 miles / 16.1 kilometers Calm Calm - N/A   Clear
METAR KPAH 240153Z AUTO 00000KT 10SM CLR M13/M16 A3045 RMK AO2 SLP317 T11281161
8:53 PM 6.1 F / -14.4 C 3.0 F / -16.1 C 87% 30.48 in / 1032.1 hPa 10.0 miles / 16.1 kilometers WNW 3.5 mph / 5.6 km/h / 1.5 m/s - N/A   Clear
METAR KPAH 240253Z AUTO 29003KT 10SM CLR M14/M16 A3046 RMK AO2 SLP321 T11441161 51012
9:53 PM 5.0 F / -15.0 C 1.9 F / -16.7 C 87% 30.48 in / 1032.2 hPa 10.0 miles / 16.1 kilometers NW 3.5 mph / 5.6 km/h / 1.5 m/s - N/A   Clear
METAR KPAH 240353Z AUTO 32003KT 10SM CLR M15/M17 A3046 RMK AO2 SLP322 T11501167
10:53 PM 8.1 F / -13.3 C 1.9 F / -16.7 C 76% 30.49 in / 1032.3 hPa 10.0 miles / 16.1 kilometers NNW 4.6 mph / 7.4 km/h / 2.1 m/s - N/A   Clear
METAR KPAH 240453Z AUTO 34004KT 10SM CLR M13/M17 A3046 RMK AO2 SLP323 T11331167
11:53 PM 8.1 F / -13.3 C 1.0 F / -17.2 C 73% 30.48 in / 1032.0 hPa 10.0 miles / 16.1 kilometers North 3.5 mph / 5.6 km/h / 1.5 m/s - N/A   Clear
METAR KPAH 240553Z AUTO 35003KT 10SM CLR M13/M17 A3046 RMK AO2 SLP320 T11331172 11106 21167 410721167 58000